createdAt,value
2022-10-04T00:00:00.618Z,7.77
2022-10-04T00:02:34.011Z,7.60
2022-10-04T00:05:07.551Z,7.80
2022-10-04T00:07:38.516Z,7.80
2022-10-04T00:10:18.696Z,8.00
2022-10-04T00:12:49.621Z,7.13
2022-10-04T00:15:23.597Z,7.53
2022-10-04T00:18:08.282Z,7.50
2022-10-04T00:21:02.101Z,8.20
2022-10-04T00:23:42.309Z,7.53
2022-10-04T00:26:17.260Z,7.73
2022-10-04T00:28:46.925Z,7.23
2022-10-04T00:31:24.938Z,6.83
2022-10-04T00:33:56.161Z,7.20
2022-10-04T00:36:57.895Z,7.00
2022-10-04T00:39:37.966Z,7.20
2022-10-04T00:42:31.002Z,7.20
2022-10-04T00:45:02.165Z,7.30
2022-10-04T00:47:36.674Z,7.40
2022-10-04T00:50:16.010Z,7.87
2022-10-04T00:52:48.891Z,7.80
2022-10-04T00:55:26.129Z,8.23
2022-10-04T00:58:00.437Z,7.77
2022-10-04T01:00:31.392Z,8.70
2022-10-04T01:03:06.909Z,8.53
2022-10-04T01:05:37.436Z,8.27
2022-10-04T01:08:09.605Z,9.00
2022-10-04T01:10:43.249Z,8.87
2022-10-04T01:13:15.349Z,8.83
2022-10-04T01:15:50.418Z,8.20
2022-10-04T01:18:30.914Z,8.20
2022-10-04T01:21:01.468Z,9.07
2022-10-04T01:23:36.025Z,9.63
2022-10-04T01:26:06.249Z,10.30
2022-10-04T01:28:35.304Z,9.80
2022-10-04T01:31:03.544Z,10.37
2022-10-04T01:33:31.642Z,9.67
2022-10-04T01:35:59.954Z,9.83
2022-10-04T01:38:27.997Z,9.87
2022-10-04T01:41:01.280Z,10.00
2022-10-04T01:43:36.567Z,9.90
2022-10-04T01:46:09.706Z,10.73
2022-10-04T01:48:42.070Z,9.70
2022-10-04T01:51:15.659Z,9.73
2022-10-04T01:53:51.167Z,9.70
2022-10-04T01:56:23.271Z,8.87
2022-10-04T01:58:55.227Z,9.23
2022-10-04T02:01:30.579Z,9.13
2022-10-04T02:04:04.435Z,8.83
2022-10-04T02:06:38.781Z,9.10
2022-10-04T02:09:10.689Z,8.27
2022-10-04T02:11:41.713Z,9.40
2022-10-04T02:14:16.445Z,8.97
2022-10-04T02:16:46.488Z,9.90
2022-10-04T02:19:16.161Z,9.80
2022-10-04T02:21:45.018Z,9.80
2022-10-04T02:24:13.724Z,9.93
2022-10-04T02:26:43.220Z,9.10
2022-10-04T02:29:11.328Z,9.47
2022-10-04T02:31:58.147Z,9.40
2022-10-04T02:34:26.302Z,9.33
2022-10-04T02:36:54.684Z,9.30
2022-10-04T02:39:26.000Z,8.00
2022-10-04T02:42:00.259Z,6.97
2022-10-04T02:44:31.666Z,6.20
2022-10-04T02:47:08.724Z,5.47
2022-10-04T02:49:40.011Z,5.30
2022-10-04T02:52:12.018Z,5.20
2022-10-04T02:54:46.184Z,5.00
2022-10-04T02:57:21.614Z,4.70
2022-10-04T02:59:49.736Z,4.53
2022-10-04T03:02:29.975Z,5.07
2022-10-04T03:05:02.393Z,5.20
2022-10-04T03:07:33.425Z,5.20
2022-10-04T03:10:02.185Z,5.37
2022-10-04T03:12:31.757Z,6.10
2022-10-04T03:14:59.910Z,5.70
2022-10-04T03:17:29.658Z,6.10
2022-10-04T03:19:58.631Z,5.67
2022-10-04T03:22:26.669Z,6.33
2022-10-04T03:24:57.187Z,7.30
2022-10-04T03:27:29.585Z,6.77
2022-10-04T03:30:00.201Z,7.53
2022-10-04T03:32:30.395Z,7.00
2022-10-04T03:35:00.191Z,6.70
2022-10-04T03:37:32.131Z,7.07
2022-10-04T03:40:01.317Z,6.33
2022-10-04T03:42:31.568Z,6.20
2022-10-04T03:45:06.251Z,6.77
2022-10-04T03:47:37.055Z,6.27
2022-10-04T03:50:14.737Z,6.17
2022-10-04T03:52:48.322Z,7.30
2022-10-04T03:55:18.456Z,7.07
2022-10-04T03:57:46.769Z,7.83
2022-10-04T04:00:19.691Z,7.57
2022-10-04T04:02:51.957Z,8.73
2022-10-04T04:05:25.011Z,9.10
2022-10-04T04:08:02.213Z,9.00
2022-10-04T04:10:33.848Z,9.23
2022-10-04T04:13:19.325Z,8.87
2022-10-04T04:15:49.003Z,9.47
2022-10-04T04:18:22.530Z,9.60
2022-10-04T04:20:52.632Z,10.80
2022-10-04T04:23:27.096Z,10.60
2022-10-04T04:26:00.784Z,10.43
2022-10-04T04:28:33.881Z,9.80
2022-10-04T04:31:07.632Z,10.10
2022-10-04T04:33:44.069Z,8.90
2022-10-04T04:36:15.348Z,8.40
2022-10-04T04:38:57.421Z,7.73
2022-10-04T04:41:27.878Z,7.20
2022-10-04T04:43:55.940Z,6.83
2022-10-04T04:46:27.865Z,6.47
2022-10-04T04:49:01.865Z,6.53
2022-10-04T04:51:32.312Z,6.10
2022-10-04T04:54:04.856Z,6.00
2022-10-04T04:56:33.833Z,7.17
2022-10-04T04:59:06.537Z,6.83
2022-10-04T05:01:38.254Z,7.23
2022-10-04T05:04:16.684Z,7.33
2022-10-04T05:06:46.862Z,7.30
2022-10-04T05:09:25.141Z,7.83
2022-10-04T05:11:57.569Z,7.47
2022-10-04T05:14:25.731Z,7.40
2022-10-04T05:16:56.356Z,7.67
2022-10-04T05:19:28.645Z,7.07
2022-10-04T05:21:59.225Z,7.53
2022-10-04T05:24:31.381Z,7.33
2022-10-04T05:27:02.593Z,7.27
2022-10-04T05:29:35.036Z,6.97
2022-10-04T05:32:16.893Z,6.43
2022-10-04T05:34:49.990Z,6.10
2022-10-04T05:37:42.751Z,5.73
2022-10-04T05:40:27.686Z,5.73
2022-10-04T05:42:58.218Z,5.23
2022-10-04T05:45:28.262Z,5.57
2022-10-04T05:47:59.217Z,4.67
2022-10-04T05:50:32.740Z,5.33
2022-10-04T05:53:19.617Z,5.23
2022-10-04T05:55:59.916Z,5.30
2022-10-04T05:58:50.150Z,4.80
2022-10-04T06:01:28.949Z,5.33
2022-10-04T06:04:16.546Z,5.60
2022-10-04T06:06:51.580Z,4.50
2022-10-04T06:09:36.734Z,5.37
2022-10-04T06:12:12.598Z,5.10
2022-10-04T06:15:09.121Z,4.70
2022-10-04T06:18:09.609Z,4.57
2022-10-04T06:21:06.549Z,4.57
2022-10-04T06:23:38.354Z,4.33
2022-10-04T06:26:11.445Z,4.20
2022-10-04T06:28:44.164Z,4.80
2022-10-04T06:31:32.718Z,4.87
2022-10-04T06:34:32.527Z,4.97
2022-10-04T06:37:15.503Z,4.77
2022-10-04T06:40:08.164Z,4.50
2022-10-04T06:42:55.443Z,4.87
2022-10-04T06:45:57.176Z,5.03
2022-10-04T06:49:15.130Z,5.37
2022-10-04T06:52:39.799Z,4.93
2022-10-04T06:55:32.039Z,4.47
2022-10-04T06:58:26.002Z,5.10
2022-10-04T07:00:59.558Z,5.10
2022-10-04T07:03:32.070Z,5.27
2022-10-04T07:06:04.980Z,5.33
2022-10-04T07:08:40.452Z,5.23
2022-10-04T07:11:19.542Z,4.87
2022-10-04T07:13:57.726Z,4.80
2022-10-04T07:16:35.543Z,5.07
2022-10-04T07:19:17.322Z,4.87
2022-10-04T07:21:52.652Z,4.90
2022-10-04T07:24:30.264Z,4.57
2022-10-04T07:26:58.727Z,4.33
2022-10-04T07:29:31.859Z,4.70
2022-10-04T07:32:13.785Z,4.73
2022-10-04T07:34:47.933Z,3.90
2022-10-04T07:37:17.214Z,4.50
2022-10-04T07:39:53.790Z,4.20
2022-10-04T07:42:28.476Z,4.80
2022-10-04T07:45:05.940Z,4.97
2022-10-04T07:47:34.198Z,4.20
2022-10-04T07:50:15.294Z,4.73
2022-10-04T07:52:57.640Z,4.47
2022-10-04T07:55:33.294Z,3.63
2022-10-04T07:58:15.641Z,4.13
2022-10-04T08:00:50.258Z,4.63
2022-10-04T08:03:51.912Z,4.37
2022-10-04T08:06:24.376Z,4.30
2022-10-04T08:09:38.431Z,4.67
2022-10-04T08:12:18.870Z,4.27
2022-10-04T08:15:12.061Z,4.13
2022-10-04T08:17:52.515Z,4.33
2022-10-04T08:20:33.199Z,3.90
2022-10-04T08:23:15.162Z,4.63
2022-10-04T08:25:50.338Z,4.03
2022-10-04T08:28:48.955Z,4.33
2022-10-04T08:31:32.243Z,3.50
2022-10-04T08:34:25.394Z,3.87
2022-10-04T08:37:10.126Z,4.03
2022-10-04T08:39:53.937Z,3.50
2022-10-04T08:42:48.566Z,3.67
2022-10-04T08:46:00.719Z,3.60
2022-10-04T08:49:02.823Z,3.60
2022-10-04T08:52:15.514Z,3.47
2022-10-04T08:55:08.291Z,3.47
2022-10-04T08:58:09.745Z,3.80
2022-10-04T09:01:01.549Z,3.30
2022-10-04T09:04:10.966Z,4.20
2022-10-04T09:06:53.772Z,3.60
2022-10-04T09:10:06.525Z,3.40
2022-10-04T09:12:50.897Z,3.27
2022-10-04T09:15:27.415Z,3.80
2022-10-04T09:18:03.655Z,3.50
2022-10-04T09:20:45.716Z,3.33
2022-10-04T09:23:25.253Z,3.93
2022-10-04T09:26:09.036Z,4.37
2022-10-04T09:29:14.556Z,4.40
2022-10-04T09:32:25.301Z,4.03
2022-10-04T09:35:14.573Z,4.00
2022-10-04T09:37:59.738Z,4.13
2022-10-04T09:40:53.992Z,3.80
2022-10-04T09:43:53.213Z,3.70
2022-10-04T09:46:57.448Z,3.50
2022-10-04T09:49:53.502Z,2.87
2022-10-04T09:52:39.952Z,3.20
2022-10-04T09:55:51.951Z,3.07
2022-10-04T09:58:48.977Z,3.23
2022-10-04T10:01:25.881Z,3.07
2022-10-04T10:04:17.938Z,2.83
2022-10-04T10:07:05.740Z,3.13
2022-10-04T10:10:00.452Z,3.07
2022-10-04T10:13:04.100Z,2.73
2022-10-04T10:15:42.210Z,3.40
2022-10-04T10:18:18.428Z,3.33
2022-10-04T10:21:07.491Z,3.67
2022-10-04T10:24:04.023Z,3.10
2022-10-04T10:26:51.013Z,3.37
2022-10-04T10:30:04.325Z,3.10
2022-10-04T10:32:49.817Z,3.67
2022-10-04T10:35:43.320Z,2.87
2022-10-04T10:38:45.769Z,3.00
2022-10-04T10:41:51.651Z,2.60
2022-10-04T10:44:33.280Z,2.70
2022-10-04T10:47:13.347Z,2.57
2022-10-04T10:49:54.828Z,2.60
2022-10-04T10:52:59.293Z,2.30
2022-10-04T10:55:34.360Z,2.40
2022-10-04T10:58:45.882Z,2.30
2022-10-04T11:01:48.066Z,2.00
2022-10-04T11:04:43.810Z,2.00
2022-10-04T11:07:34.960Z,2.00
2022-10-04T11:10:50.001Z,1.50
2022-10-04T11:13:54.337Z,1.50
2022-10-04T11:16:56.766Z,1.87
2022-10-04T11:20:04.667Z,1.60
2022-10-04T11:23:09.157Z,1.43
2022-10-04T11:26:04.068Z,1.60
2022-10-04T11:28:38.939Z,1.73
2022-10-04T11:31:46.918Z,1.70
2022-10-04T11:34:48.660Z,2.00
2022-10-04T11:37:22.897Z,2.10
2022-10-04T11:40:11.320Z,2.40
2022-10-04T11:42:56.993Z,1.97
2022-10-04T11:45:42.912Z,2.20
2022-10-04T11:48:26.501Z,2.13
2022-10-04T11:51:29.162Z,2.20
2022-10-04T11:54:28.595Z,1.73
2022-10-04T11:57:16.645Z,1.97
2022-10-04T11:59:57.421Z,1.83
2022-10-04T12:02:59.478Z,1.83
2022-10-04T12:06:03.918Z,1.90
2022-10-04T12:08:49.153Z,1.70
2022-10-04T12:12:03.981Z,1.93
2022-10-04T12:14:43.688Z,1.93
2022-10-04T12:17:49.113Z,1.77
2022-10-04T12:20:54.661Z,1.60
2022-10-04T12:23:45.038Z,2.20
2022-10-04T12:26:40.222Z,1.60
2022-10-04T12:29:27.641Z,1.60
2022-10-04T12:32:00.013Z,1.40
2022-10-04T12:34:36.313Z,1.73
2022-10-04T12:37:18.778Z,1.60
2022-10-04T12:40:16.092Z,1.70
2022-10-04T12:42:53.103Z,1.60
2022-10-04T12:45:32.946Z,1.30
2022-10-04T12:48:17.505Z,1.70
2022-10-04T12:50:55.112Z,1.80
2022-10-04T12:53:35.487Z,1.37
2022-10-04T12:56:13.162Z,1.60
2022-10-04T12:59:02.145Z,1.70
2022-10-04T13:01:40.829Z,1.97
2022-10-04T13:04:24.602Z,1.73
2022-10-04T13:07:11.131Z,1.90
2022-10-04T13:10:12.046Z,1.80
2022-10-04T13:13:05.101Z,2.20
2022-10-04T13:18:36.090Z,1.60
2022-10-04T13:21:06.660Z,1.33
2022-10-04T13:23:55.488Z,1.30
2022-10-04T13:26:31.938Z,1.63
2022-10-04T13:29:04.920Z,1.67
2022-10-04T13:31:39.993Z,1.80
2022-10-04T13:34:21.781Z,1.80
2022-10-04T13:37:04.026Z,2.00
2022-10-04T13:39:58.021Z,2.00
2022-10-04T13:42:53.128Z,2.03
2022-10-04T13:45:34.791Z,2.17
2022-10-04T13:48:44.400Z,2.30
2022-10-04T13:51:44.184Z,1.80
2022-10-04T13:54:41.749Z,1.90
2022-10-04T13:57:21.456Z,2.17
2022-10-04T14:00:00.706Z,1.70
2022-10-04T14:02:56.457Z,1.90
2022-10-04T14:05:59.729Z,2.00
2022-10-04T14:08:58.897Z,1.60
2022-10-04T14:12:05.182Z,1.93
2022-10-04T14:14:47.779Z,1.70
2022-10-04T14:17:53.020Z,1.77
2022-10-04T14:21:19.215Z,1.40
2022-10-04T14:24:17.927Z,1.60
2022-10-04T14:27:20.470Z,1.97
2022-10-04T14:30:06.194Z,1.67
2022-10-04T14:32:56.978Z,1.50
2022-10-04T14:35:28.761Z,1.50
2022-10-04T14:38:17.260Z,1.60
2022-10-04T14:41:03.486Z,1.40
2022-10-04T14:44:13.306Z,1.77
2022-10-04T14:46:52.609Z,1.67
2022-10-04T14:49:41.299Z,1.60
2022-10-04T14:52:24.802Z,2.00
2022-10-04T14:54:55.046Z,2.30
2022-10-04T14:57:44.410Z,1.93
2022-10-04T15:00:20.182Z,2.30
2022-10-04T15:03:16.143Z,2.30
2022-10-04T15:06:10.248Z,2.20
2022-10-04T15:09:17.682Z,2.00
2022-10-04T15:12:21.570Z,2.20
2022-10-04T15:15:05.514Z,2.23
2022-10-04T15:17:39.334Z,2.20
2022-10-04T15:20:20.622Z,2.07
2022-10-04T15:22:54.195Z,1.83
2022-10-04T15:25:41.502Z,1.90
2022-10-04T15:28:40.297Z,2.50
2022-10-04T15:31:17.142Z,1.90
2022-10-04T15:33:56.729Z,1.87
2022-10-04T15:36:39.596Z,2.00
2022-10-04T15:39:35.847Z,2.20
2022-10-04T15:42:12.765Z,1.93
2022-10-04T15:45:20.832Z,1.93
2022-10-04T15:48:11.481Z,2.00
2022-10-04T15:50:53.830Z,2.43
2022-10-04T15:53:55.708Z,2.30
2022-10-04T15:56:35.838Z,2.23
2022-10-04T15:59:39.385Z,2.50
2022-10-04T16:02:48.618Z,2.57
2022-10-04T16:05:26.916Z,3.20
2022-10-04T16:08:26.639Z,2.57
2022-10-04T16:11:10.791Z,2.90
2022-10-04T16:13:58.284Z,2.80
2022-10-04T16:17:21.147Z,2.83
2022-10-04T16:20:13.702Z,2.87
2022-10-04T16:23:21.845Z,3.13
2022-10-04T16:25:50.071Z,3.70
2022-10-04T16:28:28.277Z,3.90
2022-10-04T16:31:20.372Z,3.60
2022-10-04T16:33:58.325Z,4.10
2022-10-04T16:36:31.973Z,3.93
2022-10-04T16:39:20.394Z,4.50
2022-10-04T16:41:59.859Z,4.90
2022-10-04T16:44:37.589Z,4.67
2022-10-04T16:47:22.206Z,4.53
2022-10-04T16:49:57.083Z,4.53
2022-10-04T16:52:38.761Z,4.37
2022-10-04T16:55:35.355Z,4.00
2022-10-04T16:58:41.405Z,4.10
2022-10-04T17:01:46.325Z,4.80
2022-10-04T17:04:40.391Z,4.87
2022-10-04T17:07:23.218Z,5.20
2022-10-04T17:09:57.557Z,6.17
2022-10-04T17:12:36.932Z,6.63
2022-10-04T17:15:34.833Z,7.07
2022-10-04T17:18:14.731Z,6.63
2022-10-04T17:20:56.675Z,6.67
2022-10-04T17:23:51.243Z,6.70
2022-10-04T17:26:31.909Z,7.03
2022-10-04T17:29:08.087Z,6.77
2022-10-04T17:31:49.334Z,7.07
2022-10-04T17:34:27.310Z,7.20
2022-10-04T17:36:57.345Z,7.60
2022-10-04T17:39:44.460Z,7.03
2022-10-04T17:42:28.814Z,7.90
2022-10-04T17:45:43.499Z,8.70
2022-10-04T17:48:33.807Z,8.90
2022-10-04T17:51:23.097Z,8.57
2022-10-04T17:54:14.741Z,8.17
2022-10-04T17:56:47.147Z,8.07
2022-10-04T17:59:20.714Z,7.63
2022-10-04T18:02:00.552Z,8.67
2022-10-04T18:04:35.242Z,7.60
2022-10-04T18:07:10.835Z,8.00
2022-10-04T18:09:44.651Z,8.80
2022-10-04T18:12:24.461Z,8.17
2022-10-04T18:15:01.971Z,8.73
2022-10-04T18:17:38.978Z,8.00
2022-10-04T18:20:28.892Z,8.20
2022-10-04T18:23:02.710Z,8.63
2022-10-04T18:25:33.834Z,8.57
2022-10-04T18:28:06.723Z,9.10
2022-10-04T18:30:36.229Z,8.57
2022-10-04T18:33:16.302Z,8.67
2022-10-04T18:35:53.189Z,8.93
2022-10-04T18:38:24.825Z,10.83
2022-10-04T18:40:57.492Z,13.07
2022-10-04T18:43:30.658Z,14.63
2022-10-04T18:46:04.580Z,15.37
2022-10-04T18:48:52.826Z,13.90
2022-10-04T18:51:31.173Z,14.63
2022-10-04T18:54:25.224Z,15.20
2022-10-04T18:57:06.505Z,14.00
2022-10-04T18:59:58.393Z,13.17
2022-10-04T19:02:35.359Z,13.07
2022-10-04T19:05:15.455Z,14.67
2022-10-04T19:07:50.641Z,16.80
2022-10-04T19:10:27.008Z,17.53
2022-10-04T19:13:17.787Z,16.93
2022-10-04T19:16:05.718Z,17.00
2022-10-04T19:18:55.625Z,15.83
2022-10-04T19:21:31.569Z,16.07
2022-10-04T19:24:26.708Z,15.77
2022-10-04T19:27:01.194Z,14.83
2022-10-04T19:29:44.687Z,15.63
2022-10-04T19:32:23.459Z,15.43
2022-10-04T19:35:06.546Z,15.37
2022-10-04T19:37:42.008Z,15.83
2022-10-04T19:40:20.732Z,16.03
2022-10-04T19:42:58.672Z,16.80
2022-10-04T19:45:34.024Z,16.80
2022-10-04T19:48:07.109Z,17.07
2022-10-04T19:50:40.851Z,17.00
2022-10-04T19:53:19.685Z,17.43
2022-10-04T19:55:56.073Z,17.80
2022-10-04T19:58:31.929Z,17.00
2022-10-04T20:01:00.174Z,18.07
2022-10-04T20:03:28.685Z,19.00
2022-10-04T20:05:57.411Z,18.47
2022-10-04T20:08:56.765Z,18.37
2022-10-04T20:11:48.653Z,16.63
2022-10-04T20:14:44.964Z,18.43
2022-10-04T20:17:31.524Z,19.40
2022-10-04T20:20:03.535Z,19.70
2022-10-04T20:22:47.057Z,18.13
2022-10-04T20:25:54.889Z,19.60
2022-10-04T20:28:41.761Z,18.60
2022-10-04T20:31:11.961Z,19.20
2022-10-04T20:33:48.229Z,20.13
2022-10-04T20:36:53.252Z,19.77
2022-10-04T20:40:00.287Z,19.80
2022-10-04T20:42:35.627Z,22.07
2022-10-04T20:45:22.308Z,20.83
2022-10-04T20:47:52.147Z,22.77
2022-10-04T20:50:31.252Z,25.23
2022-10-04T20:53:02.000Z,26.80
2022-10-04T20:55:32.204Z,26.37
2022-10-04T20:58:03.426Z,27.10
2022-10-04T21:00:37.497Z,26.83
2022-10-04T21:03:16.761Z,26.10
2022-10-04T21:05:47.768Z,25.73
2022-10-04T21:08:24.231Z,24.87
2022-10-04T21:11:09.368Z,23.17
2022-10-04T21:13:43.549Z,22.23
2022-10-04T21:16:32.196Z,22.53
2022-10-04T21:19:45.124Z,22.73
2022-10-04T21:22:40.651Z,21.80
2022-10-04T21:25:41.621Z,22.30
2022-10-04T21:28:39.861Z,22.57
2022-10-04T21:31:09.313Z,21.97
2022-10-04T21:33:38.129Z,21.07
2022-10-04T21:36:07.342Z,21.37
2022-10-04T21:38:35.498Z,21.33
2022-10-04T21:41:04.258Z,20.47
2022-10-04T21:43:32.354Z,21.93
2022-10-04T21:46:00.753Z,21.23
2022-10-04T21:48:30.235Z,22.90
2022-10-04T21:50:58.308Z,21.97
2022-10-04T21:53:26.384Z,23.03
2022-10-04T21:55:54.431Z,21.63
2022-10-04T21:58:22.496Z,21.03
2022-10-04T22:00:50.855Z,20.57
2022-10-04T22:03:18.914Z,19.60
2022-10-04T22:05:49.413Z,20.93
2022-10-04T22:08:17.413Z,19.63
2022-10-04T22:10:48.729Z,20.10
2022-10-04T22:13:17.006Z,20.43
2022-10-04T22:15:45.024Z,19.33
2022-10-04T22:18:13.061Z,20.33
2022-10-04T22:20:41.223Z,18.90
2022-10-04T22:23:17.724Z,19.30
2022-10-04T22:25:46.059Z,18.23
2022-10-04T22:28:23.405Z,18.83
2022-10-04T22:30:52.227Z,18.60
2022-10-04T22:33:29.897Z,17.57
2022-10-04T22:36:00.100Z,18.27
2022-10-04T22:38:29.472Z,17.93
2022-10-04T22:40:58.008Z,17.67
2022-10-04T22:43:28.141Z,18.70
2022-10-04T22:45:58.187Z,18.73
2022-10-04T22:48:28.891Z,18.83
2022-10-04T22:50:57.018Z,19.57
2022-10-04T22:53:25.432Z,19.53
2022-10-04T22:55:56.166Z,18.97
2022-10-04T22:58:24.146Z,18.67
2022-10-04T23:00:53.692Z,19.83
2022-10-04T23:03:28.963Z,19.43
2022-10-04T23:05:57.054Z,22.23
2022-10-04T23:08:25.105Z,22.23
2022-10-04T23:10:56.791Z,23.17
2022-10-04T23:13:26.117Z,22.33
2022-10-04T23:15:58.534Z,23.47
2022-10-04T23:18:27.585Z,21.70
2022-10-04T23:21:00.533Z,20.37
2022-10-04T23:23:32.418Z,20.90
2022-10-04T23:26:01.845Z,19.90
2022-10-04T23:28:30.556Z,19.13
2022-10-04T23:31:05.920Z,19.37
2022-10-04T23:33:33.969Z,20.63
2022-10-04T23:36:03.134Z,22.87
2022-10-04T23:38:33.228Z,21.37
2022-10-04T23:41:02.992Z,20.87
2022-10-04T23:43:31.938Z,22.63
2022-10-04T23:46:00.177Z,21.70
2022-10-04T23:48:31.927Z,20.43
2022-10-04T23:51:00.966Z,20.47
2022-10-04T23:53:31.812Z,20.37
2022-10-04T23:56:04.233Z,18.83
2022-10-04T23:58:37.383Z,19.03
